Terminal Aerodrome Forecast
Issued by NWS Norman, OK

Home | Current Version | Previous Version | Text Only | Print | Product List | Glossary On
Versions: 1 2 3 4 5 6 7 8 9 10 11 12 13 14 15 16 17 18 19 20 21 22 23 24 25 26
000
FTUS44 KOUN 020523
TAFSPS
TAF
KSPS 020523Z 0206/0306 14008KT P6SM FEW040 BKN100
     FM021600 17014G20KT P6SM BKN100
     FM030100 15011KT P6SM SCT100=

USA.gov is the U.S. government's official web portal to all federal, state and local government web resources and services.